sensor_id;sensor_type;location;lat;lon;timestamp;P1;durP1;ratioP1;P2;durP2;ratioP2
68744;SDS011;66104;45.456;11.064;2023-04-15T00:02:42;7.00;;;3.30;;
68744;SDS011;66104;45.456;11.064;2023-04-15T00:05:20;4.70;;;3.10;;
68744;SDS011;66104;45.456;11.064;2023-04-15T00:07:56;5.60;;;2.80;;
68744;SDS011;66104;45.456;11.064;2023-04-15T00:10:32;4.50;;;2.90;;
68744;SDS011;66104;45.456;11.064;2023-04-15T00:13:08;5.50;;;2.60;;
68744;SDS011;66104;45.456;11.064;2023-04-15T00:15:45;4.10;;;2.60;;
68744;SDS011;66104;45.456;11.064;2023-04-15T00:18:22;3.80;;;2.60;;
68744;SDS011;66104;45.456;11.064;2023-04-15T00:20:59;4.30;;;2.40;;
68744;SDS011;66104;45.456;11.064;2023-04-15T00:23:37;3.60;;;2.40;;
68744;SDS011;66104;45.456;11.064;2023-04-15T00:26:13;5.50;;;2.70;;
68744;SDS011;66104;45.456;11.064;2023-04-15T00:28:50;3.60;;;2.40;;
68744;SDS011;66104;45.456;11.064;2023-04-15T00:31:26;3.30;;;2.20;;
68744;SDS011;66104;45.456;11.064;2023-04-15T00:34:02;4.70;;;2.60;;
68744;SDS011;66104;45.456;11.064;2023-04-15T00:36:39;3.40;;;2.30;;
68744;SDS011;66104;45.456;11.064;2023-04-15T00:39:15;3.60;;;2.40;;
68744;SDS011;66104;45.456;11.064;2023-04-15T00:41:51;4.00;;;2.30;;
68744;SDS011;66104;45.456;11.064;2023-04-15T00:44:28;3.70;;;2.30;;
68744;SDS011;66104;45.456;11.064;2023-04-15T00:47:07;4.80;;;2.50;;
68744;SDS011;66104;45.456;11.064;2023-04-15T00:49:43;3.80;;;2.40;;
68744;SDS011;66104;45.456;11.064;2023-04-15T00:52:21;3.20;;;2.00;;
68744;SDS011;66104;45.456;11.064;2023-04-15T00:54:57;3.70;;;2.30;;
68744;SDS011;66104;45.456;11.064;2023-04-15T00:57:34;4.20;;;2.40;;
68744;SDS011;66104;45.456;11.064;2023-04-15T01:00:14;3.60;;;2.30;;
68744;SDS011;66104;45.456;11.064;2023-04-15T01:02:51;11.20;;;2.30;;
68744;SDS011;66104;45.456;11.064;2023-04-15T01:05:27;4.10;;;2.40;;
68744;SDS011;66104;45.456;11.064;2023-04-15T01:08:05;3.40;;;2.30;;
68744;SDS011;66104;45.456;11.064;2023-04-15T01:10:43;4.30;;;2.40;;
68744;SDS011;66104;45.456;11.064;2023-04-15T01:13:18;3.90;;;2.60;;
68744;SDS011;66104;45.456;11.064;2023-04-15T01:15:54;3.60;;;2.30;;
68744;SDS011;66104;45.456;11.064;2023-04-15T01:18:31;3.10;;;2.00;;
68744;SDS011;66104;45.456;11.064;2023-04-15T01:21:09;3.60;;;2.20;;
68744;SDS011;66104;45.456;11.064;2023-04-15T01:23:45;3.80;;;2.00;;
68744;SDS011;66104;45.456;11.064;2023-04-15T01:26:22;3.20;;;2.10;;
68744;SDS011;66104;45.456;11.064;2023-04-15T01:28:58;4.00;;;2.30;;
68744;SDS011;66104;45.456;11.064;2023-04-15T01:31:35;4.00;;;2.20;;
68744;SDS011;66104;45.456;11.064;2023-04-15T01:34:11;3.10;;;2.10;;
68744;SDS011;66104;45.456;11.064;2023-04-15T01:36:48;3.30;;;2.00;;
68744;SDS011;66104;45.456;11.064;2023-04-15T01:39:24;4.50;;;2.00;;
68744;SDS011;66104;45.456;11.064;2023-04-15T01:42:01;3.50;;;2.00;;
68744;SDS011;66104;45.456;11.064;2023-04-15T01:44:38;4.80;;;2.00;;
68744;SDS011;66104;45.456;11.064;2023-04-15T01:47:14;3.20;;;2.00;;
68744;SDS011;66104;45.456;11.064;2023-04-15T01:49:50;2.70;;;2.00;;
68744;SDS011;66104;45.456;11.064;2023-04-15T01:52:27;4.80;;;2.30;;
68744;SDS011;66104;45.456;11.064;2023-04-15T01:55:03;3.00;;;1.90;;
68744;SDS011;66104;45.456;11.064;2023-04-15T01:57:42;4.40;;;2.10;;
68744;SDS011;66104;45.456;11.064;2023-04-15T02:00:21;4.00;;;2.10;;
68744;SDS011;66104;45.456;11.064;2023-04-15T02:02:57;3.30;;;2.20;;
68744;SDS011;66104;45.456;11.064;2023-04-15T02:05:33;5.00;;;1.90;;
68744;SDS011;66104;45.456;11.064;2023-04-15T02:08:08;3.30;;;2.10;;
68744;SDS011;66104;45.456;11.064;2023-04-15T02:10:45;3.50;;;2.10;;
68744;SDS011;66104;45.456;11.064;2023-04-15T02:13:21;3.20;;;2.00;;
68744;SDS011;66104;45.456;11.064;2023-04-15T02:15:58;2.60;;;1.80;;
68744;SDS011;66104;45.456;11.064;2023-04-15T02:18:35;3.20;;;2.10;;
68744;SDS011;66104;45.456;11.064;2023-04-15T02:21:12;3.10;;;2.00;;
68744;SDS011;66104;45.456;11.064;2023-04-15T02:23:49;4.90;;;2.00;;
68744;SDS011;66104;45.456;11.064;2023-04-15T02:26:26;3.20;;;1.90;;
68744;SDS011;66104;45.456;11.064;2023-04-15T02:29:03;3.70;;;2.00;;
68744;SDS011;66104;45.456;11.064;2023-04-15T02:31:40;4.10;;;2.00;;
68744;SDS011;66104;45.456;11.064;2023-04-15T02:34:16;3.60;;;2.30;;
68744;SDS011;66104;45.456;11.064;2023-04-15T02:37:00;2.90;;;1.70;;
68744;SDS011;66104;45.456;11.064;2023-04-15T02:39:39;3.50;;;2.20;;
68744;SDS011;66104;45.456;11.064;2023-04-15T02:42:14;2.80;;;1.80;;
68744;SDS011;66104;45.456;11.064;2023-04-15T02:44:52;3.50;;;1.90;;
68744;SDS011;66104;45.456;11.064;2023-04-15T02:47:31;3.20;;;1.80;;
68744;SDS011;66104;45.456;11.064;2023-04-15T02:50:12;3.90;;;2.10;;
68744;SDS011;66104;45.456;11.064;2023-04-15T02:52:48;3.70;;;2.10;;
68744;SDS011;66104;45.456;11.064;2023-04-15T02:55:24;2.80;;;1.90;;
68744;SDS011;66104;45.456;11.064;2023-04-15T02:58:00;2.70;;;1.80;;
68744;SDS011;66104;45.456;11.064;2023-04-15T03:00:36;5.00;;;1.90;;
68744;SDS011;66104;45.456;11.064;2023-04-15T03:03:13;4.50;;;1.90;;
68744;SDS011;66104;45.456;11.064;2023-04-15T03:05:50;2.80;;;1.70;;
68744;SDS011;66104;45.456;11.064;2023-04-15T03:08:26;2.80;;;1.80;;
68744;SDS011;66104;45.456;11.064;2023-04-15T03:11:04;3.20;;;1.90;;
68744;SDS011;66104;45.456;11.064;2023-04-15T03:13:41;3.00;;;1.80;;
68744;SDS011;66104;45.456;11.064;2023-04-15T03:16:26;3.10;;;1.90;;
68744;SDS011;66104;45.456;11.064;2023-04-15T03:19:03;4.10;;;1.90;;
68744;SDS011;66104;45.456;11.064;2023-04-15T03:21:41;4.20;;;1.90;;
68744;SDS011;66104;45.456;11.064;2023-04-15T03:24:18;2.30;;;1.60;;
68744;SDS011;66104;45.456;11.064;2023-04-15T03:26:59;3.90;;;2.10;;
68744;SDS011;66104;45.456;11.064;2023-04-15T03:29:37;3.20;;;2.00;;
68744;SDS011;66104;45.456;11.064;2023-04-15T03:32:15;3.00;;;1.90;;
68744;SDS011;66104;45.456;11.064;2023-04-15T03:34:51;3.00;;;1.80;;
68744;SDS011;66104;45.456;11.064;2023-04-15T03:37:29;3.10;;;2.00;;
68744;SDS011;66104;45.456;11.064;2023-04-15T03:40:07;3.90;;;2.00;;
68744;SDS011;66104;45.456;11.064;2023-04-15T03:42:49;3.80;;;2.10;;
68744;SDS011;66104;45.456;11.064;2023-04-15T03:45:26;3.80;;;1.90;;
68744;SDS011;66104;45.456;11.064;2023-04-15T03:48:04;3.60;;;2.20;;
68744;SDS011;66104;45.456;11.064;2023-04-15T03:50:48;4.30;;;2.30;;
68744;SDS011;66104;45.456;11.064;2023-04-15T03:53:24;3.10;;;1.90;;
68744;SDS011;66104;45.456;11.064;2023-04-15T03:56:01;4.20;;;2.00;;
68744;SDS011;66104;45.456;11.064;2023-04-15T03:58:38;3.80;;;2.40;;
68744;SDS011;66104;45.456;11.064;2023-04-15T04:01:16;3.40;;;2.00;;
68744;SDS011;66104;45.456;11.064;2023-04-15T04:03:53;4.10;;;2.20;;
68744;SDS011;66104;45.456;11.064;2023-04-15T04:06:29;3.90;;;2.30;;
68744;SDS011;66104;45.456;11.064;2023-04-15T04:09:07;4.00;;;2.30;;
68744;SDS011;66104;45.456;11.064;2023-04-15T04:11:44;4.50;;;2.90;;
68744;SDS011;66104;45.456;11.064;2023-04-15T04:14:20;6.30;;;3.10;;
68744;SDS011;66104;45.456;11.064;2023-04-15T04:17:00;4.40;;;2.80;;
68744;SDS011;66104;45.456;11.064;2023-04-15T04:19:37;5.20;;;2.50;;
68744;SDS011;66104;45.456;11.064;2023-04-15T04:22:14;3.70;;;2.30;;
68744;SDS011;66104;45.456;11.064;2023-04-15T04:24:51;4.60;;;2.30;;
68744;SDS011;66104;45.456;11.064;2023-04-15T04:27:29;8.60;;;2.40;;
68744;SDS011;66104;45.456;11.064;2023-04-15T04:30:14;3.30;;;2.40;;
68744;SDS011;66104;45.456;11.064;2023-04-15T04:35:28;3.10;;;2.30;;
68744;SDS011;66104;45.456;11.064;2023-04-15T04:38:08;3.80;;;2.60;;
68744;SDS011;66104;45.456;11.064;2023-04-15T04:40:47;3.60;;;2.40;;
68744;SDS011;66104;45.456;11.064;2023-04-15T04:43:24;3.00;;;1.90;;
68744;SDS011;66104;45.456;11.064;2023-04-15T04:46:02;4.00;;;2.10;;
68744;SDS011;66104;45.456;11.064;2023-04-15T04:48:38;2.50;;;1.80;;
68744;SDS011;66104;45.456;11.064;2023-04-15T04:51:17;3.10;;;2.10;;
68744;SDS011;66104;45.456;11.064;2023-04-15T04:53:53;2.90;;;2.00;;
68744;SDS011;66104;45.456;11.064;2023-04-15T04:56:32;3.50;;;2.20;;
68744;SDS011;66104;45.456;11.064;2023-04-15T04:59:10;3.40;;;1.90;;
68744;SDS011;66104;45.456;11.064;2023-04-15T05:01:50;3.00;;;2.00;;
68744;SDS011;66104;45.456;11.064;2023-04-15T05:04:27;3.50;;;2.20;;
68744;SDS011;66104;45.456;11.064;2023-04-15T05:07:03;2.70;;;1.90;;
68744;SDS011;66104;45.456;11.064;2023-04-15T05:09:40;4.20;;;2.00;;
68744;SDS011;66104;45.456;11.064;2023-04-15T05:12:17;6.50;;;1.90;;
68744;SDS011;66104;45.456;11.064;2023-04-15T05:14:53;3.40;;;2.00;;
68744;SDS011;66104;45.456;11.064;2023-04-15T05:17:30;2.90;;;2.00;;
68744;SDS011;66104;45.456;11.064;2023-04-15T05:20:13;4.80;;;2.20;;
68744;SDS011;66104;45.456;11.064;2023-04-15T05:22:51;4.70;;;2.60;;
68744;SDS011;66104;45.456;11.064;2023-04-15T05:25:28;9.10;;;3.00;;
68744;SDS011;66104;45.456;11.064;2023-04-15T05:28:05;5.10;;;2.40;;
68744;SDS011;66104;45.456;11.064;2023-04-15T05:30:42;5.00;;;2.30;;
68744;SDS011;66104;45.456;11.064;2023-04-15T05:33:19;5.90;;;2.50;;
68744;SDS011;66104;45.456;11.064;2023-04-15T05:35:57;4.30;;;2.30;;
68744;SDS011;66104;45.456;11.064;2023-04-15T05:38:33;4.90;;;2.30;;
68744;SDS011;66104;45.456;11.064;2023-04-15T05:41:09;6.10;;;2.80;;
68744;SDS011;66104;45.456;11.064;2023-04-15T05:43:50;8.60;;;2.90;;
68744;SDS011;66104;45.456;11.064;2023-04-15T05:46:27;8.10;;;3.20;;
68744;SDS011;66104;45.456;11.064;2023-04-15T05:49:03;7.90;;;2.70;;
68744;SDS011;66104;45.456;11.064;2023-04-15T05:51:40;7.20;;;3.10;;
68744;SDS011;66104;45.456;11.064;2023-04-15T05:54:16;7.00;;;2.50;;
68744;SDS011;66104;45.456;11.064;2023-04-15T05:56:54;5.20;;;2.60;;
68744;SDS011;66104;45.456;11.064;2023-04-15T05:59:31;7.00;;;2.80;;
68744;SDS011;66104;45.456;11.064;2023-04-15T06:02:10;4.30;;;2.60;;
68744;SDS011;66104;45.456;11.064;2023-04-15T06:04:47;6.60;;;2.60;;
68744;SDS011;66104;45.456;11.064;2023-04-15T06:07:24;5.70;;;2.60;;
68744;SDS011;66104;45.456;11.064;2023-04-15T06:10:01;4.00;;;2.40;;
68744;SDS011;66104;45.456;11.064;2023-04-15T06:12:38;5.40;;;2.50;;
68744;SDS011;66104;45.456;11.064;2023-04-15T06:15:15;4.50;;;2.70;;
68744;SDS011;66104;45.456;11.064;2023-04-15T06:17:51;4.20;;;2.60;;
68744;SDS011;66104;45.456;11.064;2023-04-15T06:20:28;4.60;;;2.60;;
68744;SDS011;66104;45.456;11.064;2023-04-15T06:23:05;3.90;;;2.60;;
68744;SDS011;66104;45.456;11.064;2023-04-15T06:25:42;4.30;;;2.60;;
68744;SDS011;66104;45.456;11.064;2023-04-15T06:28:20;4.90;;;2.80;;
68744;SDS011;66104;45.456;11.064;2023-04-15T06:30:56;4.60;;;2.70;;
68744;SDS011;66104;45.456;11.064;2023-04-15T06:33:33;4.60;;;2.30;;
68744;SDS011;66104;45.456;11.064;2023-04-15T06:36:11;4.30;;;2.80;;
68744;SDS011;66104;45.456;11.064;2023-04-15T06:38:48;5.80;;;2.70;;
68744;SDS011;66104;45.456;11.064;2023-04-15T06:41:25;4.20;;;2.60;;
68744;SDS011;66104;45.456;11.064;2023-04-15T06:44:03;5.20;;;2.70;;
68744;SDS011;66104;45.456;11.064;2023-04-15T06:46:40;3.90;;;2.50;;
68744;SDS011;66104;45.456;11.064;2023-04-15T06:49:17;4.50;;;2.50;;
68744;SDS011;66104;45.456;11.064;2023-04-15T06:51:54;5.20;;;2.70;;
68744;SDS011;66104;45.456;11.064;2023-04-15T06:54:31;5.10;;;2.90;;
68744;SDS011;66104;45.456;11.064;2023-04-15T06:57:07;7.90;;;2.90;;
68744;SDS011;66104;45.456;11.064;2023-04-15T06:59:44;3.60;;;2.30;;
68744;SDS011;66104;45.456;11.064;2023-04-15T07:02:22;4.80;;;2.60;;
68744;SDS011;66104;45.456;11.064;2023-04-15T07:04:59;3.70;;;2.60;;
68744;SDS011;66104;45.456;11.064;2023-04-15T07:07:37;4.60;;;2.50;;
68744;SDS011;66104;45.456;11.064;2023-04-15T07:10:15;4.40;;;2.40;;
68744;SDS011;66104;45.456;11.064;2023-04-15T07:12:55;3.40;;;2.30;;
68744;SDS011;66104;45.456;11.064;2023-04-15T07:15:32;5.30;;;2.70;;
68744;SDS011;66104;45.456;11.064;2023-04-15T07:18:09;3.90;;;2.70;;
68744;SDS011;66104;45.456;11.064;2023-04-15T07:20:47;4.50;;;2.30;;
68744;SDS011;66104;45.456;11.064;2023-04-15T07:23:24;3.70;;;2.40;;
68744;SDS011;66104;45.456;11.064;2023-04-15T07:26:02;3.50;;;2.30;;
68744;SDS011;66104;45.456;11.064;2023-04-15T07:28:40;4.90;;;2.30;;
68744;SDS011;66104;45.456;11.064;2023-04-15T07:31:18;3.20;;;2.10;;
68744;SDS011;66104;45.456;11.064;2023-04-15T07:33:54;2.90;;;2.20;;
68744;SDS011;66104;45.456;11.064;2023-04-15T07:36:31;3.40;;;2.50;;
68744;SDS011;66104;45.456;11.064;2023-04-15T07:39:08;3.50;;;2.10;;
68744;SDS011;66104;45.456;11.064;2023-04-15T07:41:45;3.90;;;2.00;;
68744;SDS011;66104;45.456;11.064;2023-04-15T07:44:22;2.70;;;1.90;;
68744;SDS011;66104;45.456;11.064;2023-04-15T07:47:00;6.60;;;2.30;;
68744;SDS011;66104;45.456;11.064;2023-04-15T07:49:38;3.60;;;2.20;;
68744;SDS011;66104;45.456;11.064;2023-04-15T07:52:16;4.20;;;2.40;;
68744;SDS011;66104;45.456;11.064;2023-04-15T07:54:53;3.40;;;1.90;;
68744;SDS011;66104;45.456;11.064;2023-04-15T07:57:29;3.70;;;1.80;;
68744;SDS011;66104;45.456;11.064;2023-04-15T08:00:14;4.40;;;2.10;;
68744;SDS011;66104;45.456;11.064;2023-04-15T08:02:53;3.70;;;2.40;;
68744;SDS011;66104;45.456;11.064;2023-04-15T08:05:31;4.60;;;1.90;;
68744;SDS011;66104;45.456;11.064;2023-04-15T08:08:08;3.20;;;2.20;;
68744;SDS011;66104;45.456;11.064;2023-04-15T08:10:45;4.20;;;1.90;;
68744;SDS011;66104;45.456;11.064;2023-04-15T08:13:22;4.80;;;2.20;;
68744;SDS011;66104;45.456;11.064;2023-04-15T08:16:15;4.90;;;2.10;;
68744;SDS011;66104;45.456;11.064;2023-04-15T08:18:54;2.50;;;1.70;;
68744;SDS011;66104;45.456;11.064;2023-04-15T08:21:31;2.90;;;2.00;;
68744;SDS011;66104;45.456;11.064;2023-04-15T08:24:11;2.80;;;2.10;;
68744;SDS011;66104;45.456;11.064;2023-04-15T08:26:48;4.90;;;2.20;;
68744;SDS011;66104;45.456;11.064;2023-04-15T08:29:24;3.10;;;2.00;;
68744;SDS011;66104;45.456;11.064;2023-04-15T08:32:02;3.30;;;2.10;;
68744;SDS011;66104;45.456;11.064;2023-04-15T08:34:40;3.70;;;1.90;;
68744;SDS011;66104;45.456;11.064;2023-04-15T08:37:16;5.50;;;2.00;;
68744;SDS011;66104;45.456;11.064;2023-04-15T08:39:52;5.50;;;2.10;;
68744;SDS011;66104;45.456;11.064;2023-04-15T08:42:34;3.20;;;2.20;;
68744;SDS011;66104;45.456;11.064;2023-04-15T08:45:15;4.30;;;2.00;;
68744;SDS011;66104;45.456;11.064;2023-04-15T08:47:57;4.20;;;2.40;;
68744;SDS011;66104;45.456;11.064;2023-04-15T08:50:36;4.80;;;2.20;;
68744;SDS011;66104;45.456;11.064;2023-04-15T08:53:14;3.70;;;2.30;;
68744;SDS011;66104;45.456;11.064;2023-04-15T08:55:52;4.30;;;2.40;;
68744;SDS011;66104;45.456;11.064;2023-04-15T08:58:33;4.40;;;2.70;;
68744;SDS011;66104;45.456;11.064;2023-04-15T09:01:11;7.20;;;2.90;;
68744;SDS011;66104;45.456;11.064;2023-04-15T09:03:49;4.30;;;2.40;;
68744;SDS011;66104;45.456;11.064;2023-04-15T09:06:29;4.50;;;2.40;;
68744;SDS011;66104;45.456;11.064;2023-04-15T09:09:06;4.40;;;2.60;;
68744;SDS011;66104;45.456;11.064;2023-04-15T09:11:44;5.00;;;2.80;;
68744;SDS011;66104;45.456;11.064;2023-04-15T09:14:21;4.10;;;2.50;;
68744;SDS011;66104;45.456;11.064;2023-04-15T09:17:02;4.90;;;2.60;;
68744;SDS011;66104;45.456;11.064;2023-04-15T09:19:39;7.00;;;2.90;;
68744;SDS011;66104;45.456;11.064;2023-04-15T09:22:16;4.50;;;2.70;;
68744;SDS011;66104;45.456;11.064;2023-04-15T09:24:56;4.70;;;2.90;;
68744;SDS011;66104;45.456;11.064;2023-04-15T09:27:37;5.20;;;2.50;;
68744;SDS011;66104;45.456;11.064;2023-04-15T09:30:22;4.30;;;2.40;;
68744;SDS011;66104;45.456;11.064;2023-04-15T09:33:01;3.40;;;2.40;;
68744;SDS011;66104;45.456;11.064;2023-04-15T09:35:39;3.80;;;2.50;;
68744;SDS011;66104;45.456;11.064;2023-04-15T09:38:29;6.00;;;2.30;;
68744;SDS011;66104;45.456;11.064;2023-04-15T09:41:17;4.50;;;2.40;;
68744;SDS011;66104;45.456;11.064;2023-04-15T09:43:54;4.40;;;2.60;;
68744;SDS011;66104;45.456;11.064;2023-04-15T09:46:44;6.40;;;2.70;;
68744;SDS011;66104;45.456;11.064;2023-04-15T09:49:22;4.20;;;2.60;;
68744;SDS011;66104;45.456;11.064;2023-04-15T09:52:01;3.60;;;2.30;;
68744;SDS011;66104;45.456;11.064;2023-04-15T09:54:38;3.90;;;2.70;;
68744;SDS011;66104;45.456;11.064;2023-04-15T09:57:14;5.10;;;2.70;;
68744;SDS011;66104;45.456;11.064;2023-04-15T09:59:51;5.20;;;2.90;;
68744;SDS011;66104;45.456;11.064;2023-04-15T10:02:28;7.80;;;3.20;;
68744;SDS011;66104;45.456;11.064;2023-04-15T10:05:07;4.30;;;2.40;;
68744;SDS011;66104;45.456;11.064;2023-04-15T10:07:46;5.40;;;2.60;;
68744;SDS011;66104;45.456;11.064;2023-04-15T10:10:24;5.90;;;2.90;;
68744;SDS011;66104;45.456;11.064;2023-04-15T10:13:00;4.40;;;2.90;;
68744;SDS011;66104;45.456;11.064;2023-04-15T10:15:39;5.30;;;2.70;;
68744;SDS011;66104;45.456;11.064;2023-04-15T10:18:26;4.70;;;3.10;;
68744;SDS011;66104;45.456;11.064;2023-04-15T10:21:05;4.30;;;2.40;;
68744;SDS011;66104;45.456;11.064;2023-04-15T10:23:45;6.10;;;2.80;;
68744;SDS011;66104;45.456;11.064;2023-04-15T10:26:22;3.20;;;2.40;;
68744;SDS011;66104;45.456;11.064;2023-04-15T10:29:01;3.90;;;2.60;;
68744;SDS011;66104;45.456;11.064;2023-04-15T10:31:38;4.40;;;2.60;;
68744;SDS011;66104;45.456;11.064;2023-04-15T10:34:16;7.40;;;3.10;;
68744;SDS011;66104;45.456;11.064;2023-04-15T10:36:56;4.70;;;2.50;;
68744;SDS011;66104;45.456;11.064;2023-04-15T10:39:56;4.50;;;2.40;;
68744;SDS011;66104;45.456;11.064;2023-04-15T10:42:36;3.90;;;2.40;;
68744;SDS011;66104;45.456;11.064;2023-04-15T10:45:20;3.80;;;2.60;;
68744;SDS011;66104;45.456;11.064;2023-04-15T10:48:00;4.10;;;2.30;;
68744;SDS011;66104;45.456;11.064;2023-04-15T10:50:38;4.70;;;2.70;;
68744;SDS011;66104;45.456;11.064;2023-04-15T10:53:28;5.40;;;2.90;;
68744;SDS011;66104;45.456;11.064;2023-04-15T10:56:10;6.90;;;3.10;;
68744;SDS011;66104;45.456;11.064;2023-04-15T10:58:51;4.00;;;2.80;;
68744;SDS011;66104;45.456;11.064;2023-04-15T11:01:53;4.30;;;2.40;;
68744;SDS011;66104;45.456;11.064;2023-04-15T11:04:54;3.50;;;2.80;;
68744;SDS011;66104;45.456;11.064;2023-04-15T11:07:37;6.30;;;3.70;;
68744;SDS011;66104;45.456;11.064;2023-04-15T11:10:52;6.00;;;3.60;;
68744;SDS011;66104;45.456;11.064;2023-04-15T11:13:30;5.30;;;3.40;;
68744;SDS011;66104;45.456;11.064;2023-04-15T11:16:07;4.50;;;3.60;;
68744;SDS011;66104;45.456;11.064;2023-04-15T11:18:49;5.20;;;3.80;;
68744;SDS011;66104;45.456;11.064;2023-04-15T11:21:29;6.10;;;3.90;;
68744;SDS011;66104;45.456;11.064;2023-04-15T11:24:07;5.80;;;3.60;;
68744;SDS011;66104;45.456;11.064;2023-04-15T11:26:44;4.80;;;3.20;;
68744;SDS011;66104;45.456;11.064;2023-04-15T11:29:22;5.10;;;3.20;;
68744;SDS011;66104;45.456;11.064;2023-04-15T11:32:09;4.20;;;2.70;;
68744;SDS011;66104;45.456;11.064;2023-04-15T11:34:49;4.40;;;3.00;;
68744;SDS011;66104;45.456;11.064;2023-04-15T11:37:30;3.80;;;3.00;;
68744;SDS011;66104;45.456;11.064;2023-04-15T11:40:12;6.00;;;3.20;;
68744;SDS011;66104;45.456;11.064;2023-04-15T11:42:48;4.90;;;3.00;;
68744;SDS011;66104;45.456;11.064;2023-04-15T11:45:47;5.10;;;2.60;;
68744;SDS011;66104;45.456;11.064;2023-04-15T11:48:26;4.90;;;3.20;;
68744;SDS011;66104;45.456;11.064;2023-04-15T11:51:05;4.60;;;2.70;;
68744;SDS011;66104;45.456;11.064;2023-04-15T11:53:47;4.00;;;2.60;;
68744;SDS011;66104;45.456;11.064;2023-04-15T11:56:27;3.40;;;2.40;;
68744;SDS011;66104;45.456;11.064;2023-04-15T11:59:04;3.90;;;2.50;;
68744;SDS011;66104;45.456;11.064;2023-04-15T12:01:41;4.10;;;2.40;;
68744;SDS011;66104;45.456;11.064;2023-04-15T12:04:18;4.20;;;2.70;;
68744;SDS011;66104;45.456;11.064;2023-04-15T12:06:56;4.00;;;2.10;;
68744;SDS011;66104;45.456;11.064;2023-04-15T12:09:41;5.00;;;2.70;;
68744;SDS011;66104;45.456;11.064;2023-04-15T12:12:29;3.60;;;2.00;;
68744;SDS011;66104;45.456;11.064;2023-04-15T12:15:10;3.40;;;1.90;;
68744;SDS011;66104;45.456;11.064;2023-04-15T12:17:48;3.10;;;2.00;;
68744;SDS011;66104;45.456;11.064;2023-04-15T12:20:28;4.20;;;1.90;;
68744;SDS011;66104;45.456;11.064;2023-04-15T12:23:08;3.00;;;1.80;;
68744;SDS011;66104;45.456;11.064;2023-04-15T12:25:45;4.80;;;2.20;;
68744;SDS011;66104;45.456;11.064;2023-04-15T12:28:29;3.80;;;2.10;;
68744;SDS011;66104;45.456;11.064;2023-04-15T12:31:10;5.20;;;2.50;;
68744;SDS011;66104;45.456;11.064;2023-04-15T12:33:48;3.90;;;2.40;;
68744;SDS011;66104;45.456;11.064;2023-04-15T12:36:28;5.00;;;3.10;;
68744;SDS011;66104;45.456;11.064;2023-04-15T12:39:08;4.80;;;2.60;;
68744;SDS011;66104;45.456;11.064;2023-04-15T12:41:45;4.50;;;2.70;;
68744;SDS011;66104;45.456;11.064;2023-04-15T12:44:23;4.30;;;2.40;;
68744;SDS011;66104;45.456;11.064;2023-04-15T12:47:01;4.20;;;2.30;;
68744;SDS011;66104;45.456;11.064;2023-04-15T12:49:38;5.30;;;3.20;;
68744;SDS011;66104;45.456;11.064;2023-04-15T12:52:15;5.60;;;3.10;;
68744;SDS011;66104;45.456;11.064;2023-04-15T12:54:52;5.40;;;3.20;;
68744;SDS011;66104;45.456;11.064;2023-04-15T12:57:29;4.60;;;3.10;;
68744;SDS011;66104;45.456;11.064;2023-04-15T13:00:11;5.40;;;2.80;;
68744;SDS011;66104;45.456;11.064;2023-04-15T13:02:52;4.90;;;2.40;;
68744;SDS011;66104;45.456;11.064;2023-04-15T13:05:29;4.20;;;2.90;;
68744;SDS011;66104;45.456;11.064;2023-04-15T13:08:08;5.10;;;2.50;;
68744;SDS011;66104;45.456;11.064;2023-04-15T13:10:45;4.60;;;2.50;;
68744;SDS011;66104;45.456;11.064;2023-04-15T13:13:23;4.30;;;2.00;;
68744;SDS011;66104;45.456;11.064;2023-04-15T13:16:02;4.00;;;2.20;;
68744;SDS011;66104;45.456;11.064;2023-04-15T13:18:41;4.20;;;2.30;;
68744;SDS011;66104;45.456;11.064;2023-04-15T13:21:20;5.50;;;2.80;;
68744;SDS011;66104;45.456;11.064;2023-04-15T13:23:58;4.80;;;3.00;;
68744;SDS011;66104;45.456;11.064;2023-04-15T13:26:35;5.50;;;2.70;;
68744;SDS011;66104;45.456;11.064;2023-04-15T13:29:12;4.40;;;2.70;;
68744;SDS011;66104;45.456;11.064;2023-04-15T13:31:49;5.60;;;3.10;;
68744;SDS011;66104;45.456;11.064;2023-04-15T13:34:26;5.90;;;3.10;;
68744;SDS011;66104;45.456;11.064;2023-04-15T13:37:07;5.50;;;2.50;;
68744;SDS011;66104;45.456;11.064;2023-04-15T13:39:44;4.00;;;2.40;;
68744;SDS011;66104;45.456;11.064;2023-04-15T13:42:21;3.00;;;1.90;;
68744;SDS011;66104;45.456;11.064;2023-04-15T13:44:57;3.20;;;1.80;;
68744;SDS011;66104;45.456;11.064;2023-04-15T13:47:34;3.90;;;2.40;;
68744;SDS011;66104;45.456;11.064;2023-04-15T13:50:13;3.70;;;2.20;;
68744;SDS011;66104;45.456;11.064;2023-04-15T13:52:51;4.50;;;2.40;;
68744;SDS011;66104;45.456;11.064;2023-04-15T13:55:28;4.30;;;2.10;;
68744;SDS011;66104;45.456;11.064;2023-04-15T13:58:05;6.20;;;2.60;;
68744;SDS011;66104;45.456;11.064;2023-04-15T14:00:42;4.10;;;2.10;;
68744;SDS011;66104;45.456;11.064;2023-04-15T14:03:19;3.70;;;2.20;;
68744;SDS011;66104;45.456;11.064;2023-04-15T14:05:57;3.60;;;2.00;;
68744;SDS011;66104;45.456;11.064;2023-04-15T14:08:34;4.50;;;2.20;;
68744;SDS011;66104;45.456;11.064;2023-04-15T14:11:11;4.20;;;2.30;;
68744;SDS011;66104;45.456;11.064;2023-04-15T14:13:48;4.10;;;2.60;;
68744;SDS011;66104;45.456;11.064;2023-04-15T14:16:26;8.10;;;2.30;;
68744;SDS011;66104;45.456;11.064;2023-04-15T14:19:02;3.90;;;2.40;;
68744;SDS011;66104;45.456;11.064;2023-04-15T14:21:39;3.20;;;1.50;;
68744;SDS011;66104;45.456;11.064;2023-04-15T14:24:18;3.10;;;1.60;;
68744;SDS011;66104;45.456;11.064;2023-04-15T14:26:55;4.20;;;1.90;;
68744;SDS011;66104;45.456;11.064;2023-04-15T14:29:33;4.40;;;1.80;;
68744;SDS011;66104;45.456;11.064;2023-04-15T14:32:10;3.00;;;1.30;;
68744;SDS011;66104;45.456;11.064;2023-04-15T14:34:48;4.60;;;1.80;;
68744;SDS011;66104;45.456;11.064;2023-04-15T14:37:24;4.50;;;1.70;;
68744;SDS011;66104;45.456;11.064;2023-04-15T14:40:01;4.40;;;1.60;;
68744;SDS011;66104;45.456;11.064;2023-04-15T14:42:41;3.90;;;1.90;;
68744;SDS011;66104;45.456;11.064;2023-04-15T14:45:20;3.70;;;1.80;;
68744;SDS011;66104;45.456;11.064;2023-04-15T14:47:58;4.00;;;2.00;;
68744;SDS011;66104;45.456;11.064;2023-04-15T14:50:37;2.80;;;1.60;;
68744;SDS011;66104;45.456;11.064;2023-04-15T14:53:16;4.60;;;1.30;;
68744;SDS011;66104;45.456;11.064;2023-04-15T14:55:53;4.10;;;1.40;;
68744;SDS011;66104;45.456;11.064;2023-04-15T14:58:30;5.90;;;1.80;;
68744;SDS011;66104;45.456;11.064;2023-04-15T15:01:07;4.80;;;2.10;;
68744;SDS011;66104;45.456;11.064;2023-04-15T15:03:44;5.70;;;1.80;;
68744;SDS011;66104;45.456;11.064;2023-04-15T15:06:23;3.30;;;1.90;;
68744;SDS011;66104;45.456;11.064;2023-04-15T15:09:01;3.50;;;1.40;;
68744;SDS011;66104;45.456;11.064;2023-04-15T15:11:39;3.40;;;1.80;;
68744;SDS011;66104;45.456;11.064;2023-04-15T15:14:15;3.30;;;1.60;;
68744;SDS011;66104;45.456;11.064;2023-04-15T15:16:55;3.50;;;1.40;;
68744;SDS011;66104;45.456;11.064;2023-04-15T15:19:31;3.70;;;1.40;;
68744;SDS011;66104;45.456;11.064;2023-04-15T15:22:07;2.00;;;1.30;;
68744;SDS011;66104;45.456;11.064;2023-04-15T15:24:44;1.30;;;1.00;;
68744;SDS011;66104;45.456;11.064;2023-04-15T15:27:20;2.00;;;1.30;;
68744;SDS011;66104;45.456;11.064;2023-04-15T15:29:57;2.60;;;1.10;;
68744;SDS011;66104;45.456;11.064;2023-04-15T15:32:34;3.50;;;1.30;;
68744;SDS011;66104;45.456;11.064;2023-04-15T15:35:15;3.10;;;1.30;;
68744;SDS011;66104;45.456;11.064;2023-04-15T15:37:53;4.00;;;1.50;;
68744;SDS011;66104;45.456;11.064;2023-04-15T15:40:30;3.20;;;1.50;;
68744;SDS011;66104;45.456;11.064;2023-04-15T15:43:07;3.20;;;1.70;;